sensor_id;sensor_type;location;lat;lon;timestamp;temperature;humidity
17968;DHT22;9109;48.050;11.696;2023-02-25T04:46:54;3.80;99.90
17968;DHT22;9109;48.050;11.696;2023-02-25T04:49:56;3.80;99.90
17968;DHT22;9109;48.050;11.696;2023-02-25T04:52:59;3.80;99.90
17968;DHT22;9109;48.050;11.696;2023-02-25T04:56:03;3.80;99.90
17968;DHT22;9109;48.050;11.696;2023-02-25T04:59:05;3.80;99.90
17968;DHT22;9109;48.050;11.696;2023-02-25T05:02:08;3.80;99.90
17968;DHT22;9109;48.050;11.696;2023-02-25T05:05:11;3.80;99.90
17968;DHT22;9109;48.050;11.696;2023-02-25T05:08:13;3.80;99.90
17968;DHT22;9109;48.050;11.696;2023-02-25T05:11:14;3.90;99.90
17968;DHT22;9109;48.050;11.696;2023-02-25T05:14:17;3.80;99.90
17968;DHT22;9109;48.050;11.696;2023-02-25T05:17:20;3.70;99.90
17968;DHT22;9109;48.050;11.696;2023-02-25T05:20:22;3.70;99.90
17968;DHT22;9109;48.050;11.696;2023-02-25T05:23:24;3.70;99.90
17968;DHT22;9109;48.050;11.696;2023-02-25T05:26:25;3.60;99.90
17968;DHT22;9109;48.050;11.696;2023-02-25T05:29:27;3.60;99.90
17968;DHT22;9109;48.050;11.696;2023-02-25T05:32:30;3.60;99.90
17968;DHT22;9109;48.050;11.696;2023-02-25T05:35:32;3.60;99.90
17968;DHT22;9109;48.050;11.696;2023-02-25T05:38:35;3.60;99.90
17968;DHT22;9109;48.050;11.696;2023-02-25T05:41:37;3.50;99.90
17968;DHT22;9109;48.050;11.696;2023-02-25T05:44:39;3.50;99.90
17968;DHT22;9109;48.050;11.696;2023-02-25T05:47:43;3.50;99.90
17968;DHT22;9109;48.050;11.696;2023-02-25T05:50:44;3.60;99.90
17968;DHT22;9109;48.050;11.696;2023-02-25T05:53:46;3.60;99.90
17968;DHT22;9109;48.050;11.696;2023-02-25T05:56:50;3.60;99.90
17968;DHT22;9109;48.050;11.696;2023-02-25T05:59:52;3.60;99.90
17968;DHT22;9109;48.050;11.696;2023-02-25T06:02:55;3.60;99.90
17968;DHT22;9109;48.050;11.696;2023-02-25T06:05:59;3.60;99.90
17968;DHT22;9109;48.050;11.696;2023-02-25T06:09:02;3.60;99.90
17968;DHT22;9109;48.050;11.696;2023-02-25T06:12:05;3.50;99.90
17968;DHT22;9109;48.050;11.696;2023-02-25T06:15:08;3.50;99.90
17968;DHT22;9109;48.050;11.696;2023-02-25T06:18:11;3.60;99.90
17968;DHT22;9109;48.050;11.696;2023-02-25T06:21:14;3.60;99.90
17968;DHT22;9109;48.050;11.696;2023-02-25T06:24:16;3.60;99.90
17968;DHT22;9109;48.050;11.696;2023-02-25T06:27:17;3.60;99.90
17968;DHT22;9109;48.050;11.696;2023-02-25T06:30:20;3.60;99.90
17968;DHT22;9109;48.050;11.696;2023-02-25T06:33:23;3.60;99.90
17968;DHT22;9109;48.050;11.696;2023-02-25T06:36:25;3.60;99.90
17968;DHT22;9109;48.050;11.696;2023-02-25T06:39:27;3.60;99.90
17968;DHT22;9109;48.050;11.696;2023-02-25T06:42:29;3.60;99.90
17968;DHT22;9109;48.050;11.696;2023-02-25T06:45:30;3.60;99.90
17968;DHT22;9109;48.050;11.696;2023-02-25T06:48:34;3.60;99.90
17968;DHT22;9109;48.050;11.696;2023-02-25T06:51:36;3.60;99.90
17968;DHT22;9109;48.050;11.696;2023-02-25T06:54:37;3.60;99.90
17968;DHT22;9109;48.050;11.696;2023-02-25T06:57:39;3.60;99.90
17968;DHT22;9109;48.050;11.696;2023-02-25T07:00:41;3.70;99.90
17968;DHT22;9109;48.050;11.696;2023-02-25T07:03:44;3.70;99.90
17968;DHT22;9109;48.050;11.696;2023-02-25T07:06:46;3.80;99.90
17968;DHT22;9109;48.050;11.696;2023-02-25T07:09:48;3.70;99.90
17968;DHT22;9109;48.050;11.696;2023-02-25T07:12:51;3.80;99.90
17968;DHT22;9109;48.050;11.696;2023-02-25T07:15:53;3.90;99.90
17968;DHT22;9109;48.050;11.696;2023-02-25T07:18:57;3.90;99.90
17968;DHT22;9109;48.050;11.696;2023-02-25T07:22:01;3.80;99.90
17968;DHT22;9109;48.050;11.696;2023-02-25T07:25:06;3.90;99.90
17968;DHT22;9109;48.050;11.696;2023-02-25T07:28:08;3.90;99.90
17968;DHT22;9109;48.050;11.696;2023-02-25T07:31:12;3.90;99.90
17968;DHT22;9109;48.050;11.696;2023-02-25T07:34:15;3.80;99.90
17968;DHT22;9109;48.050;11.696;2023-02-25T07:37:17;3.80;99.90
17968;DHT22;9109;48.050;11.696;2023-02-25T07:40:19;3.80;99.90
17968;DHT22;9109;48.050;11.696;2023-02-25T07:43:21;3.80;99.90
17968;DHT22;9109;48.050;11.696;2023-02-25T07:46:23;3.80;99.90
17968;DHT22;9109;48.050;11.696;2023-02-25T07:49:26;3.70;99.90
17968;DHT22;9109;48.050;11.696;2023-02-25T07:52:28;3.70;99.90
17968;DHT22;9109;48.050;11.696;2023-02-25T07:55:30;3.80;99.90
17968;DHT22;9109;48.050;11.696;2023-02-25T07:58:32;3.80;99.90
17968;DHT22;9109;48.050;11.696;2023-02-25T08:01:34;3.80;99.90
17968;DHT22;9109;48.050;11.696;2023-02-25T08:04:40;3.80;99.90
17968;DHT22;9109;48.050;11.696;2023-02-25T08:07:42;3.90;99.90
17968;DHT22;9109;48.050;11.696;2023-02-25T08:10:44;4.00;99.90
17968;DHT22;9109;48.050;11.696;2023-02-25T08:13:46;4.00;99.90
17968;DHT22;9109;48.050;11.696;2023-02-25T08:16:49;4.00;99.90
17968;DHT22;9109;48.050;11.696;2023-02-25T08:19:54;4.10;99.90
17968;DHT22;9109;48.050;11.696;2023-02-25T08:22:56;4.10;99.90
17968;DHT22;9109;48.050;11.696;2023-02-25T08:25:58;4.20;99.90
17968;DHT22;9109;48.050;11.696;2023-02-25T08:29:00;4.20;99.90
17968;DHT22;9109;48.050;11.696;2023-02-25T08:32:04;4.30;99.90
17968;DHT22;9109;48.050;11.696;2023-02-25T08:35:08;4.30;99.90
17968;DHT22;9109;48.050;11.696;2023-02-25T08:38:11;4.20;99.90
17968;DHT22;9109;48.050;11.696;2023-02-25T08:41:13;4.30;99.90
17968;DHT22;9109;48.050;11.696;2023-02-25T08:44:15;4.20;99.90
17968;DHT22;9109;48.050;11.696;2023-02-25T08:47:20;4.30;99.90
17968;DHT22;9109;48.050;11.696;2023-02-25T08:50:23;4.30;99.90
17968;DHT22;9109;48.050;11.696;2023-02-25T08:53:25;4.30;99.90
17968;DHT22;9109;48.050;11.696;2023-02-25T08:56:27;4.20;99.90
17968;DHT22;9109;48.050;11.696;2023-02-25T08:59:29;4.10;99.90
17968;DHT22;9109;48.050;11.696;2023-02-25T09:02:35;4.10;99.90
17968;DHT22;9109;48.050;11.696;2023-02-25T09:05:39;4.20;99.90
17968;DHT22;9109;48.050;11.696;2023-02-25T09:08:41;4.10;99.90
17968;DHT22;9109;48.050;11.696;2023-02-25T09:11:44;4.10;99.90
17968;DHT22;9109;48.050;11.696;2023-02-25T09:14:46;4.20;99.90
17968;DHT22;9109;48.050;11.696;2023-02-25T09:17:48;4.20;99.90
17968;DHT22;9109;48.050;11.696;2023-02-25T09:20:53;4.20;99.90
17968;DHT22;9109;48.050;11.696;2023-02-25T09:23:55;4.20;99.90
17968;DHT22;9109;48.050;11.696;2023-02-25T09:26:58;4.10;99.90
17968;DHT22;9109;48.050;11.696;2023-02-25T09:30:00;4.10;99.90
17968;DHT22;9109;48.050;11.696;2023-02-25T09:33:02;4.00;99.90
17968;DHT22;9109;48.050;11.696;2023-02-25T09:36:07;3.90;99.90
17968;DHT22;9109;48.050;11.696;2023-02-25T09:39:10;3.90;99.90
17968;DHT22;9109;48.050;11.696;2023-02-25T09:42:16;3.90;99.90
17968;DHT22;9109;48.050;11.696;2023-02-25T09:45:22;3.90;99.90
17968;DHT22;9109;48.050;11.696;2023-02-25T09:48:26;3.80;99.90
17968;DHT22;9109;48.050;11.696;2023-02-25T09:51:34;3.90;99.90
17968;DHT22;9109;48.050;11.696;2023-02-25T09:54:41;3.80;99.90
17968;DHT22;9109;48.050;11.696;2023-02-25T09:57:51;3.80;99.90
17968;DHT22;9109;48.050;11.696;2023-02-25T10:01:00;3.70;99.90
17968;DHT22;9109;48.050;11.696;2023-02-25T10:04:11;3.70;99.90
17968;DHT22;9109;48.050;11.696;2023-02-25T10:07:21;3.70;99.90
17968;DHT22;9109;48.050;11.696;2023-02-25T10:10:31;3.60;99.90
17968;DHT22;9109;48.050;11.696;2023-02-25T10:13:41;3.60;99.90
17968;DHT22;9109;48.050;11.696;2023-02-25T10:16:49;3.80;99.90
17968;DHT22;9109;48.050;11.696;2023-02-25T10:20:12;3.90;99.90
17968;DHT22;9109;48.050;11.696;2023-02-25T10:23:30;4.00;99.90
17968;DHT22;9109;48.050;11.696;2023-02-25T10:26:38;4.00;99.90
17968;DHT22;9109;48.050;11.696;2023-02-25T10:29:45;4.10;99.90
17968;DHT22;9109;48.050;11.696;2023-02-25T10:32:49;4.10;99.90
17968;DHT22;9109;48.050;11.696;2023-02-25T10:35:56;4.10;99.90
17968;DHT22;9109;48.050;11.696;2023-02-25T10:39:00;4.10;99.90
17968;DHT22;9109;48.050;11.696;2023-02-25T10:42:04;4.20;99.90
17968;DHT22;9109;48.050;11.696;2023-02-25T10:45:08;4.30;99.90
17968;DHT22;9109;48.050;11.696;2023-02-25T10:48:13;4.30;99.90
17968;DHT22;9109;48.050;11.696;2023-02-25T10:51:17;4.40;99.90
17968;DHT22;9109;48.050;11.696;2023-02-25T10:54:22;4.40;99.90
17968;DHT22;9109;48.050;11.696;2023-02-25T10:57:26;4.40;99.90
17968;DHT22;9109;48.050;11.696;2023-02-25T11:00:30;4.40;99.90
17968;DHT22;9109;48.050;11.696;2023-02-25T11:03:41;4.50;99.90
17968;DHT22;9109;48.050;11.696;2023-02-25T11:06:44;4.40;99.90
17968;DHT22;9109;48.050;11.696;2023-02-25T11:10:05;4.40;99.90
17968;DHT22;9109;48.050;11.696;2023-02-25T11:13:26;4.40;99.90
17968;DHT22;9109;48.050;11.696;2023-02-25T11:16:29;4.40;99.90
17968;DHT22;9109;48.050;11.696;2023-02-25T11:19:36;4.40;99.90
17968;DHT22;9109;48.050;11.696;2023-02-25T11:22:38;4.40;99.90
17968;DHT22;9109;48.050;11.696;2023-02-25T11:25:44;4.40;99.90
17968;DHT22;9109;48.050;11.696;2023-02-25T11:28:48;4.40;99.90
17968;DHT22;9109;48.050;11.696;2023-02-25T11:31:52;4.40;99.90
17968;DHT22;9109;48.050;11.696;2023-02-25T11:34:59;4.40;99.90
17968;DHT22;9109;48.050;11.696;2023-02-25T11:38:14;4.50;99.90
17968;DHT22;9109;48.050;11.696;2023-02-25T11:41:21;4.40;99.90
17968;DHT22;9109;48.050;11.696;2023-02-25T11:44:28;4.40;99.90
17968;DHT22;9109;48.050;11.696;2023-02-25T11:47:31;4.50;99.90
17968;DHT22;9109;48.050;11.696;2023-02-25T11:50:40;4.50;99.90
17968;DHT22;9109;48.050;11.696;2023-02-25T11:54:07;4.50;99.90
17968;DHT22;9109;48.050;11.696;2023-02-25T11:57:21;4.60;99.90
17968;DHT22;9109;48.050;11.696;2023-02-25T12:00:27;4.50;99.90
17968;DHT22;9109;48.050;11.696;2023-02-25T12:07:27;4.40;99.90
17968;DHT22;9109;48.050;11.696;2023-02-25T12:14:46;4.10;99.90
17968;DHT22;9109;48.050;11.696;2023-02-25T12:18:35;4.10;99.90
17968;DHT22;9109;48.050;11.696;2023-02-25T12:22:05;4.10;99.90
17968;DHT22;9109;48.050;11.696;2023-02-25T12:25:21;4.10;99.90
17968;DHT22;9109;48.050;11.696;2023-02-25T12:28:54;4.00;99.90
17968;DHT22;9109;48.050;11.696;2023-02-25T12:32:22;4.00;99.90
17968;DHT22;9109;48.050;11.696;2023-02-25T12:35:37;3.90;99.90
17968;DHT22;9109;48.050;11.696;2023-02-25T12:39:09;4.00;99.90
17968;DHT22;9109;48.050;11.696;2023-02-25T12:42:28;3.80;99.90
17968;DHT22;9109;48.050;11.696;2023-02-25T12:45:43;3.90;99.90
17968;DHT22;9109;48.050;11.696;2023-02-25T12:49:23;3.90;99.90
17968;DHT22;9109;48.050;11.696;2023-02-25T12:52:36;3.90;99.90
17968;DHT22;9109;48.050;11.696;2023-02-25T12:55:51;3.90;99.90
17968;DHT22;9109;48.050;11.696;2023-02-25T13:02:48;4.00;99.90
17968;DHT22;9109;48.050;11.696;2023-02-25T13:06:12;4.00;99.90
17968;DHT22;9109;48.050;11.696;2023-02-25T13:09:45;4.10;99.90
17968;DHT22;9109;48.050;11.696;2023-02-25T13:13:15;4.00;99.90
17968;DHT22;9109;48.050;11.696;2023-02-25T13:16:26;4.00;99.90
17968;DHT22;9109;48.050;11.696;2023-02-25T13:27:37;4.00;99.90
17968;DHT22;9109;48.050;11.696;2023-02-25T13:30:46;4.00;99.90
17968;DHT22;9109;48.050;11.696;2023-02-25T13:34:07;4.00;99.90
17968;DHT22;9109;48.050;11.696;2023-02-25T13:37:23;4.00;99.90
17968;DHT22;9109;48.050;11.696;2023-02-25T13:40:41;3.90;99.90
17968;DHT22;9109;48.050;11.696;2023-02-25T13:44:03;3.90;99.90
17968;DHT22;9109;48.050;11.696;2023-02-25T13:47:34;3.80;99.90
17968;DHT22;9109;48.050;11.696;2023-02-25T13:50:53;3.80;99.90
17968;DHT22;9109;48.050;11.696;2023-02-25T13:54:11;3.90;99.90
17968;DHT22;9109;48.050;11.696;2023-02-25T13:57:29;3.80;99.90
17968;DHT22;9109;48.050;11.696;2023-02-25T14:01:03;3.90;99.90
17968;DHT22;9109;48.050;11.696;2023-02-25T14:04:29;3.80;99.90
17968;DHT22;9109;48.050;11.696;2023-02-25T14:07:46;3.90;99.90
17968;DHT22;9109;48.050;11.696;2023-02-25T14:10:53;4.10;99.90
17968;DHT22;9109;48.050;11.696;2023-02-25T14:14:17;4.00;99.90
17968;DHT22;9109;48.050;11.696;2023-02-25T14:17:45;3.90;99.90
17968;DHT22;9109;48.050;11.696;2023-02-25T14:20:58;4.00;99.90
17968;DHT22;9109;48.050;11.696;2023-02-25T14:24:09;4.00;99.90
17968;DHT22;9109;48.050;11.696;2023-02-25T14:27:19;4.20;99.90
17968;DHT22;9109;48.050;11.696;2023-02-25T14:30:31;4.20;99.90
17968;DHT22;9109;48.050;11.696;2023-02-25T14:37:30;4.20;99.90
17968;DHT22;9109;48.050;11.696;2023-02-25T14:40:40;4.20;99.90
17968;DHT22;9109;48.050;11.696;2023-02-25T14:43:45;4.30;99.90
17968;DHT22;9109;48.050;11.696;2023-02-25T14:46:53;4.40;99.90
17968;DHT22;9109;48.050;11.696;2023-02-25T14:50:03;4.40;99.90
17968;DHT22;9109;48.050;11.696;2023-02-25T14:53:41;4.40;99.90
17968;DHT22;9109;48.050;11.696;2023-02-25T14:56:58;4.30;99.90
17968;DHT22;9109;48.050;11.696;2023-02-25T15:00:30;4.30;99.90
17968;DHT22;9109;48.050;11.696;2023-02-25T15:03:47;4.40;99.90
17968;DHT22;9109;48.050;11.696;2023-02-25T15:07:05;4.40;99.90
17968;DHT22;9109;48.050;11.696;2023-02-25T15:10:39;4.40;99.90
17968;DHT22;9109;48.050;11.696;2023-02-25T15:14:20;4.40;99.90
17968;DHT22;9109;48.050;11.696;2023-02-25T15:21:30;4.50;99.90
17968;DHT22;9109;48.050;11.696;2023-02-25T15:24:38;4.50;99.90
17968;DHT22;9109;48.050;11.696;2023-02-25T15:27:45;4.50;99.90
17968;DHT22;9109;48.050;11.696;2023-02-25T15:34:52;4.60;99.90
17968;DHT22;9109;48.050;11.696;2023-02-25T15:38:06;4.60;99.90
17968;DHT22;9109;48.050;11.696;2023-02-25T15:41:40;4.70;99.90
17968;DHT22;9109;48.050;11.696;2023-02-25T15:44:43;4.70;99.90
17968;DHT22;9109;48.050;11.696;2023-02-25T15:47:46;4.70;99.90
17968;DHT22;9109;48.050;11.696;2023-02-25T15:50:52;4.80;99.90
17968;DHT22;9109;48.050;11.696;2023-02-25T15:53:54;4.70;99.90
17968;DHT22;9109;48.050;11.696;2023-02-25T15:56:59;4.60;99.90
17968;DHT22;9109;48.050;11.696;2023-02-25T16:00:08;4.60;99.90
17968;DHT22;9109;48.050;11.696;2023-02-25T16:03:39;4.60;99.90
17968;DHT22;9109;48.050;11.696;2023-02-25T16:06:42;4.50;99.90
17968;DHT22;9109;48.050;11.696;2023-02-25T16:09:49;4.50;99.90
17968;DHT22;9109;48.050;11.696;2023-02-25T16:12:55;4.40;99.90
17968;DHT22;9109;48.050;11.696;2023-02-25T16:15:58;4.40;99.90
17968;DHT22;9109;48.050;11.696;2023-02-25T16:19:04;4.40;99.90
17968;DHT22;9109;48.050;11.696;2023-02-25T16:22:15;4.40;99.90
17968;DHT22;9109;48.050;11.696;2023-02-25T16:25:23;4.40;99.90
17968;DHT22;9109;48.050;11.696;2023-02-25T16:28:36;4.50;99.90
17968;DHT22;9109;48.050;11.696;2023-02-25T16:31:45;4.40;99.90
17968;DHT22;9109;48.050;11.696;2023-02-25T16:34:54;4.40;99.90
17968;DHT22;9109;48.050;11.696;2023-02-25T16:38:03;4.40;99.90
17968;DHT22;9109;48.050;11.696;2023-02-25T16:41:07;4.40;99.90
17968;DHT22;9109;48.050;11.696;2023-02-25T16:44:16;4.40;99.90
17968;DHT22;9109;48.050;11.696;2023-02-25T16:47:22;4.40;99.90
17968;DHT22;9109;48.050;11.696;2023-02-25T16:50:26;4.30;99.90
17968;DHT22;9109;48.050;11.696;2023-02-25T16:53:30;4.30;99.90
17968;DHT22;9109;48.050;11.696;2023-02-25T16:56:32;4.30;99.90
17968;DHT22;9109;48.050;11.696;2023-02-25T16:59:37;4.20;99.90
17968;DHT22;9109;48.050;11.696;2023-02-25T17:02:43;4.00;99.90
17968;DHT22;9109;48.050;11.696;2023-02-25T17:05:59;3.80;99.90
17968;DHT22;9109;48.050;11.696;2023-02-25T17:09:01;3.80;99.90
17968;DHT22;9109;48.050;11.696;2023-02-25T17:12:04;3.80;99.90
17968;DHT22;9109;48.050;11.696;2023-02-25T17:15:14;3.90;99.90
17968;DHT22;9109;48.050;11.696;2023-02-25T17:18:20;3.90;99.90
17968;DHT22;9109;48.050;11.696;2023-02-25T17:21:26;3.80;99.90
17968;DHT22;9109;48.050;11.696;2023-02-25T17:24:30;3.70;99.90
17968;DHT22;9109;48.050;11.696;2023-02-25T17:27:33;3.70;99.90
17968;DHT22;9109;48.050;11.696;2023-02-25T17:30:39;3.70;99.90
17968;DHT22;9109;48.050;11.696;2023-02-25T17:33:46;3.70;99.90
17968;DHT22;9109;48.050;11.696;2023-02-25T17:36:49;3.60;99.90
17968;DHT22;9109;48.050;11.696;2023-02-25T17:39:52;3.50;99.90
17968;DHT22;9109;48.050;11.696;2023-02-25T17:43:16;3.40;99.90
17968;DHT22;9109;48.050;11.696;2023-02-25T17:46:27;3.30;99.90
17968;DHT22;9109;48.050;11.696;2023-02-25T17:49:31;3.30;99.90
17968;DHT22;9109;48.050;11.696;2023-02-25T17:52:33;3.30;99.90
17968;DHT22;9109;48.050;11.696;2023-02-25T17:55:35;3.40;99.90
17968;DHT22;9109;48.050;11.696;2023-02-25T17:58:37;3.50;99.90
17968;DHT22;9109;48.050;11.696;2023-02-25T18:01:49;3.50;99.90
17968;DHT22;9109;48.050;11.696;2023-02-25T18:05:13;3.40;99.90
17968;DHT22;9109;48.050;11.696;2023-02-25T18:08:20;3.40;99.90
17968;DHT22;9109;48.050;11.696;2023-02-25T18:11:25;3.40;99.90
17968;DHT22;9109;48.050;11.696;2023-02-25T18:14:32;3.40;99.90
17968;DHT22;9109;48.050;11.696;2023-02-25T18:17:37;3.40;99.90
17968;DHT22;9109;48.050;11.696;2023-02-25T18:20:41;3.00;99.90
17968;DHT22;9109;48.050;11.696;2023-02-25T18:23:43;2.60;99.90
17968;DHT22;9109;48.050;11.696;2023-02-25T18:30:17;2.30;99.90
17968;DHT22;9109;48.050;11.696;2023-02-25T18:33:21;2.20;99.90
17968;DHT22;9109;48.050;11.696;2023-02-25T18:36:25;2.20;99.90
17968;DHT22;9109;48.050;11.696;2023-02-25T18:39:28;2.40;99.90
17968;DHT22;9109;48.050;11.696;2023-02-25T18:42:29;2.50;99.90
17968;DHT22;9109;48.050;11.696;2023-02-25T18:45:32;2.40;99.90
17968;DHT22;9109;48.050;11.696;2023-02-25T18:48:36;2.30;99.90
17968;DHT22;9109;48.050;11.696;2023-02-25T18:51:38;2.40;99.90
17968;DHT22;9109;48.050;11.696;2023-02-25T18:54:40;2.50;99.90
17968;DHT22;9109;48.050;11.696;2023-02-25T18:57:42;2.30;99.90
17968;DHT22;9109;48.050;11.696;2023-02-25T19:00:46;2.10;99.90
17968;DHT22;9109;48.050;11.696;2023-02-25T19:03:50;2.10;99.90
17968;DHT22;9109;48.050;11.696;2023-02-25T19:06:53;2.10;99.90
17968;DHT22;9109;48.050;11.696;2023-02-25T19:09:55;2.00;99.90
17968;DHT22;9109;48.050;11.696;2023-02-25T19:13:00;2.00;99.90
17968;DHT22;9109;48.050;11.696;2023-02-25T19:16:03;2.10;99.90
17968;DHT22;9109;48.050;11.696;2023-02-25T19:19:06;2.10;99.90
17968;DHT22;9109;48.050;11.696;2023-02-25T19:22:09;2.30;99.90
17968;DHT22;9109;48.050;11.696;2023-02-25T19:25:17;2.10;99.90
17968;DHT22;9109;48.050;11.696;2023-02-25T19:28:19;2.20;99.90
17968;DHT22;9109;48.050;11.696;2023-02-25T19:31:21;2.20;99.90
17968;DHT22;9109;48.050;11.696;2023-02-25T19:34:24;2.10;99.90
17968;DHT22;9109;48.050;11.696;2023-02-25T19:37:26;2.00;99.90
17968;DHT22;9109;48.050;11.696;2023-02-25T19:40:33;2.00;99.90
17968;DHT22;9109;48.050;11.696;2023-02-25T19:43:35;2.10;99.90
17968;DHT22;9109;48.050;11.696;2023-02-25T19:46:37;2.20;99.90
17968;DHT22;9109;48.050;11.696;2023-02-25T19:49:40;2.30;99.90
17968;DHT22;9109;48.050;11.696;2023-02-25T19:52:42;2.30;99.90
17968;DHT22;9109;48.050;11.696;2023-02-25T19:55:44;2.30;99.90
17968;DHT22;9109;48.050;11.696;2023-02-25T19:58:46;2.40;99.90
17968;DHT22;9109;48.050;11.696;2023-02-25T20:01:48;2.40;99.90
17968;DHT22;9109;48.050;11.696;2023-02-25T20:04:51;2.40;99.90
17968;DHT22;9109;48.050;11.696;2023-02-25T20:07:53;2.50;99.90
17968;DHT22;9109;48.050;11.696;2023-02-25T20:10:55;2.60;99.90
17968;DHT22;9109;48.050;11.696;2023-02-25T20:13:59;2.60;99.90
17968;DHT22;9109;48.050;11.696;2023-02-25T20:17:01;2.60;99.90
17968;DHT22;9109;48.050;11.696;2023-02-25T20:20:05;2.70;99.90
17968;DHT22;9109;48.050;11.696;2023-02-25T20:23:07;2.70;99.90
17968;DHT22;9109;48.050;11.696;2023-02-25T20:26:11;2.70;99.90
17968;DHT22;9109;48.050;11.696;2023-02-25T20:29:13;2.70;99.90
17968;DHT22;9109;48.050;11.696;2023-02-25T20:32:15;2.70;99.90
17968;DHT22;9109;48.050;11.696;2023-02-25T20:35:20;2.60;99.90
17968;DHT22;9109;48.050;11.696;2023-02-25T20:38:25;2.60;99.90
17968;DHT22;9109;48.050;11.696;2023-02-25T20:41:29;2.60;99.90
17968;DHT22;9109;48.050;11.696;2023-02-25T20:44:32;2.60;99.90
17968;DHT22;9109;48.050;11.696;2023-02-25T20:47:34;2.60;99.90
17968;DHT22;9109;48.050;11.696;2023-02-25T20:50:38;2.60;99.90
17968;DHT22;9109;48.050;11.696;2023-02-25T20:53:41;2.60;99.90
17968;DHT22;9109;48.050;11.696;2023-02-25T20:56:43;2.60;99.90
17968;DHT22;9109;48.050;11.696;2023-02-25T20:59:45;2.60;99.90
17968;DHT22;9109;48.050;11.696;2023-02-25T21:02:49;2.50;99.90
17968;DHT22;9109;48.050;11.696;2023-02-25T21:05:52;2.50;99.90
17968;DHT22;9109;48.050;11.696;2023-02-25T21:08:54;2.60;99.90
17968;DHT22;9109;48.050;11.696;2023-02-25T21:11:56;2.60;99.90
17968;DHT22;9109;48.050;11.696;2023-02-25T21:14:58;2.50;99.90
17968;DHT22;9109;48.050;11.696;2023-02-25T21:18:00;2.60;99.90
17968;DHT22;9109;48.050;11.696;2023-02-25T21:21:05;2.60;99.90
17968;DHT22;9109;48.050;11.696;2023-02-25T21:24:08;2.30;99.90
17968;DHT22;9109;48.050;11.696;2023-02-25T21:27:12;1.80;99.90
17968;DHT22;9109;48.050;11.696;2023-02-25T21:30:14;1.30;99.90
17968;DHT22;9109;48.050;11.696;2023-02-25T21:33:16;1.10;99.90
17968;DHT22;9109;48.050;11.696;2023-02-25T21:36:20;1.10;99.90
17968;DHT22;9109;48.050;11.696;2023-02-25T21:39:22;1.10;99.90
17968;DHT22;9109;48.050;11.696;2023-02-25T21:42:25;1.10;99.90
17968;DHT22;9109;48.050;11.696;2023-02-25T21:45:27;1.10;99.90
17968;DHT22;9109;48.050;11.696;2023-02-25T21:48:30;1.20;99.90
17968;DHT22;9109;48.050;11.696;2023-02-25T21:51:34;1.10;99.90
17968;DHT22;9109;48.050;11.696;2023-02-25T21:54:36;1.10;99.90
17968;DHT22;9109;48.050;11.696;2023-02-25T21:57:37;1.10;99.90
17968;DHT22;9109;48.050;11.696;2023-02-25T22:00:39;1.20;99.90
17968;DHT22;9109;48.050;11.696;2023-02-25T22:03:42;1.30;99.90
17968;DHT22;9109;48.050;11.696;2023-02-25T22:06:45;1.50;99.90
17968;DHT22;9109;48.050;11.696;2023-02-25T22:09:48;1.60;99.90
17968;DHT22;9109;48.050;11.696;2023-02-25T22:12:50;1.70;99.90
17968;DHT22;9109;48.050;11.696;2023-02-25T22:15:52;1.70;99.90
17968;DHT22;9109;48.050;11.696;2023-02-25T22:18:55;1.70;99.90
17968;DHT22;9109;48.050;11.696;2023-02-25T22:21:58;1.70;99.90
17968;DHT22;9109;48.050;11.696;2023-02-25T22:25:00;1.60;99.90
17968;DHT22;9109;48.050;11.696;2023-02-25T22:28:03;1.50;99.90
17968;DHT22;9109;48.050;11.696;2023-02-25T22:31:08;1.50;99.90
17968;DHT22;9109;48.050;11.696;2023-02-25T22:34:10;1.50;99.90
17968;DHT22;9109;48.050;11.696;2023-02-25T22:37:14;1.50;99.90
17968;DHT22;9109;48.050;11.696;2023-02-25T22:40:16;1.50;99.90
17968;DHT22;9109;48.050;11.696;2023-02-25T22:43:21;1.50;99.90
17968;DHT22;9109;48.050;11.696;2023-02-25T22:46:25;1.40;99.90
17968;DHT22;9109;48.050;11.696;2023-02-25T22:49:27;1.20;99.90
17968;DHT22;9109;48.050;11.696;2023-02-25T22:52:30;0.90;99.90
17968;DHT22;9109;48.050;11.696;2023-02-25T22:55:32;0.50;99.90
17968;DHT22;9109;48.050;11.696;2023-02-25T22:58:34;0.30;99.90
17968;DHT22;9109;48.050;11.696;2023-02-25T23:01:38;0.20;99.90
17968;DHT22;9109;48.050;11.696;2023-02-25T23:04:40;0.20;99.90
17968;DHT22;9109;48.050;11.696;2023-02-25T23:07:43;0.20;99.90
17968;DHT22;9109;48.050;11.696;2023-02-25T23:10:45;0.20;99.90
17968;DHT22;9109;48.050;11.696;2023-02-25T23:13:49;0.20;99.90
17968;DHT22;9109;48.050;11.696;2023-02-25T23:16:52;0.20;99.90
17968;DHT22;9109;48.050;11.696;2023-02-25T23:19:54;0.20;99.90
17968;DHT22;9109;48.050;11.696;2023-02-25T23:23:01;0.00;99.90
17968;DHT22;9109;48.050;11.696;2023-02-25T23:26:06;0.00;99.90
17968;DHT22;9109;48.050;11.696;2023-02-25T23:29:09;-0.10;99.90
17968;DHT22;9109;48.050;11.696;2023-02-25T23:32:12;-0.20;99.90
17968;DHT22;9109;48.050;11.696;2023-02-25T23:35:14;-0.10;99.90
17968;DHT22;9109;48.050;11.696;2023-02-25T23:38:17;-0.20;99.90
17968;DHT22;9109;48.050;11.696;2023-02-25T23:41:19;-0.20;99.90
17968;DHT22;9109;48.050;11.696;2023-02-25T23:44:33;-0.20;99.90
17968;DHT22;9109;48.050;11.696;2023-02-25T23:47:35;-0.10;99.90
17968;DHT22;9109;48.050;11.696;2023-02-25T23:50:37;-0.10;99.90
17968;DHT22;9109;48.050;11.696;2023-02-25T23:53:41;0.00;99.90
17968;DHT22;9109;48.050;11.696;2023-02-25T23:56:43;0.00;99.90
17968;DHT22;9109;48.050;11.696;2023-02-25T23:59:45;0.10;99.90
